Check out our new PWSWeather beta!
PWSweather.com
Personal Weather Stations
Station Observations
KMDSOLOM1
solomons, Solomons, MD 20688

solomonsSolomons, MD 20688

Lat: 38.32, Lon: -76.45

Elevation: 5

Station Type:

http://www.act-us.info/weather

High Low Average
Temperature 47.2°F8.4°C 35.4°F1.9°C 42.4°F5.8°C
Dew Point 35.2°F1.8°C 20.8°F-6.2°C 29.0°F-1.7°C
Winds 19.0 mph 30.6 kmh Calm Calm 7.0 mph SSE11.3 kmh SSE
Wind Gusts 21.0 mph33.8 kmh -- 10.0 mph16.1 kmh
Humidity 85% 44% 60%
Pressure 30.47 in1031.8 mb 30.32 in1026.8 mb -
Precipitation 0.00 in0.0 mm - -
Hour Temp Dew Point Humidity Winds Wind Gusts Pressure Precip Precip Rate Daily Precip Total
12:00 AM 38.8°F3.8°C 32.5°F0.3°C 78% Calm Calm 1.0 mph1.6 kmh 30.32 in1026.8 mb 0.00 in0.0 mm 0.00 in0.0 mm 0.00 in0.0 mm
12:05 AM 38.7°F3.7°C 32.4°F0.2°C 78% Calm Calm 1.0 mph1.6 kmh 30.32 in1026.8 mb 0.00 in0.0 mm 0.00 in0.0 mm 0.00 in0.0 mm
12:10 AM 38.6°F3.7°C 32.4°F0.2°C 78% Calm Calm -- 30.32 in1026.8 mb 0.00 in0.0 mm 0.00 in0.0 mm 0.00 in0.0 mm
12:15 AM 38.4°F3.6°C 32.5°F0.3°C 79% Calm Calm -- 30.32 in1026.8 mb 0.00 in0.0 mm 0.00 in0.0 mm 0.00 in0.0 mm
12:20 AM 38.3°F3.5°C 32.4°F0.2°C 79% Calm Calm -- 30.32 in1026.8 mb 0.00 in0.0 mm 0.00 in0.0 mm 0.00 in0.0 mm
12:25 AM 38.2°F3.4°C 32.3°F0.2°C 79% Calm Calm -- 30.32 in1026.8 mb 0.00 in0.0 mm 0.00 in0.0 mm 0.00 in0.0 mm
12:30 AM 38.0°F3.3°C 32.4°F0.2°C 80% Calm Calm -- 30.32 in1026.8 mb 0.00 in0.0 mm 0.00 in0.0 mm 0.00 in0.0 mm
12:35 AM 38.0°F3.3°C 32.7°F0.4°C 81% Calm Calm -- 30.32 in1026.8 mb 0.00 in0.0 mm 0.00 in0.0 mm 0.00 in0.0 mm
12:40 AM 37.9°F3.3°C 32.6°F0.3°C 81% Calm Calm -- 30.32 in1026.8 mb 0.00 in0.0 mm 0.00 in0.0 mm 0.00 in0.0 mm
12:45 AM 37.9°F3.3°C 32.9°F0.5°C 82% Calm Calm -- 30.33 in1027.1 mb 0.00 in0.0 mm 0.00 in0.0 mm 0.00 in0.0 mm
12:50 AM 37.7°F3.2°C 32.7°F0.4°C 82% Calm Calm -- 30.32 in1026.8 mb 0.00 in0.0 mm 0.00 in0.0 mm 0.00 in0.0 mm
12:55 AM 37.5°F3.1°C 32.5°F0.3°C 82% Calm Calm -- 30.32 in1026.8 mb 0.00 in0.0 mm 0.00 in0.0 mm 0.00 in0.0 mm
01:00 AM 37.4°F3.0°C 32.4°F0.2°C 82% Calm Calm -- 30.32 in1026.8 mb 0.00 in0.0 mm 0.00 in0.0 mm 0.00 in0.0 mm
01:05 AM 37.3°F2.9°C 32.6°F0.3°C 83% Calm Calm -- 30.33 in1027.1 mb 0.00 in0.0 mm 0.00 in0.0 mm 0.00 in0.0 mm
01:10 AM 37.1°F2.8°C 32.4°F0.2°C 83% Calm Calm -- 30.32 in1026.8 mb 0.00 in0.0 mm 0.00 in0.0 mm 0.00 in0.0 mm
01:15 AM 37.0°F2.8°C 32.3°F0.2°C 83% 1.0 mph NW1.6 kmh NW 3.0 mph4.8 kmh 30.32 in1026.8 mb 0.00 in0.0 mm 0.00 in0.0 mm 0.00 in0.0 mm
01:20 AM 36.9°F2.7°C 32.5°F0.3°C 84% 1.0 mph NW1.6 kmh NW 3.0 mph4.8 kmh 30.32 in1026.8 mb 0.00 in0.0 mm 0.00 in0.0 mm 0.00 in0.0 mm
01:25 AM 36.8°F2.7°C 32.4°F0.2°C 84% 2.0 mph NW3.2 kmh NW 3.0 mph4.8 kmh 30.32 in1026.8 mb 0.00 in0.0 mm 0.00 in0.0 mm 0.00 in0.0 mm
01:30 AM 36.6°F2.6°C 32.2°F0.1°C 84% 2.0 mph NW3.2 kmh NW 4.0 mph6.4 kmh 30.32 in1026.8 mb 0.00 in0.0 mm 0.00 in0.0 mm 0.00 in0.0 mm
01:35 AM 36.5°F2.5°C 32.1°F0.1°C 84% 3.0 mph NW4.8 kmh NW 5.0 mph8.0 kmh 30.32 in1026.8 mb 0.00 in0.0 mm 0.00 in0.0 mm 0.00 in0.0 mm
01:40 AM 36.4°F2.4°C 32.3°F0.2°C 85% 4.0 mph NW6.4 kmh NW 4.0 mph6.4 kmh 30.32 in1026.8 mb 0.00 in0.0 mm 0.00 in0.0 mm 0.00 in0.0 mm
01:45 AM 36.2°F2.3°C 32.1°F0.1°C 85% 2.0 mph NW3.2 kmh NW 5.0 mph8.0 kmh 30.32 in1026.8 mb 0.00 in0.0 mm 0.00 in0.0 mm 0.00 in0.0 mm
01:50 AM 36.1°F2.3°C 32.0°F0.0°C 85% 3.0 mph NW4.8 kmh NW 5.0 mph8.0 kmh 30.32 in1026.8 mb 0.00 in0.0 mm 0.00 in0.0 mm 0.00 in0.0 mm
01:55 AM 36.0°F2.2°C 31.9°F-0.1°C 85% 3.0 mph NW4.8 kmh NW 3.0 mph4.8 kmh 30.32 in1026.8 mb 0.00 in0.0 mm 0.00 in0.0 mm 0.00 in0.0 mm
02:00 AM 35.8°F2.1°C 31.7°F-0.2°C 85% 1.0 mph NW1.6 kmh NW 3.0 mph4.8 kmh 30.32 in1026.8 mb 0.00 in0.0 mm 0.00 in0.0 mm 0.00 in0.0 mm
02:05 AM 35.7°F2.1°C 31.6°F-0.2°C 85% 3.0 mph NW4.8 kmh NW 4.0 mph6.4 kmh 30.32 in1026.8 mb 0.00 in0.0 mm 0.00 in0.0 mm 0.00 in0.0 mm
02:10 AM 35.6°F2.0°C 31.5°F-0.3°C 85% 2.0 mph NW3.2 kmh NW 3.0 mph4.8 kmh 30.33 in1027.1 mb 0.00 in0.0 mm 0.00 in0.0 mm 0.00 in0.0 mm
02:15 AM 35.5°F1.9°C 31.5°F-0.3°C 85% 2.0 mph NW3.2 kmh NW 4.0 mph6.4 kmh 30.33 in1027.1 mb 0.00 in0.0 mm 0.00 in0.0 mm 0.00 in0.0 mm
02:20 AM 35.4°F1.9°C 30.8°F-0.7°C 83% Calm Calm 4.0 mph6.4 kmh 30.33 in1027.1 mb 0.00 in0.0 mm 0.00 in0.0 mm 0.00 in0.0 mm
02:25 AM 35.4°F1.9°C 30.5°F-0.8°C 82% Calm Calm 1.0 mph1.6 kmh 30.33 in1027.1 mb 0.00 in0.0 mm 0.00 in0.0 mm 0.00 in0.0 mm
02:30 AM 35.4°F1.9°C 29.9°F-1.2°C 80% 1.0 mph NW1.6 kmh NW 2.0 mph3.2 kmh 30.33 in1027.1 mb 0.00 in0.0 mm 0.00 in0.0 mm 0.00 in0.0 mm
02:35 AM 35.5°F1.9°C 29.3°F-1.5°C 78% 2.0 mph NW3.2 kmh NW 3.0 mph4.8 kmh 30.33 in1027.1 mb 0.00 in0.0 mm 0.00 in0.0 mm 0.00 in0.0 mm
02:40 AM 35.7°F2.1°C 28.6°F-1.9°C 75% 3.0 mph NW4.8 kmh NW 3.0 mph4.8 kmh 30.34 in1027.4 mb 0.00 in0.0 mm 0.00 in0.0 mm 0.00 in0.0 mm
02:45 AM 36.0°F2.2°C 26.1°F-3.3°C 67% 4.0 mph NW6.4 kmh NW 8.0 mph12.9 kmh 30.33 in1027.1 mb 0.00 in0.0 mm 0.00 in0.0 mm 0.00 in0.0 mm
02:50 AM 36.9°F2.7°C 24.7°F-4.1°C 61% 8.0 mph NW12.9 kmh NW 8.0 mph12.9 kmh 30.33 in1027.1 mb 0.00 in0.0 mm 0.00 in0.0 mm 0.00 in0.0 mm
02:55 AM 37.8°F3.2°C 23.1°F-4.9°C 55% 5.0 mph NW8.0 kmh NW 10.0 mph16.1 kmh 30.33 in1027.1 mb 0.00 in0.0 mm 0.00 in0.0 mm 0.00 in0.0 mm
03:00 AM 38.6°F3.7°C 22.5°F-5.3°C 52% 7.0 mph NW11.3 kmh NW 12.0 mph19.3 kmh 30.34 in1027.4 mb 0.00 in0.0 mm 0.00 in0.0 mm 0.00 in0.0 mm
03:05 AM 39.0°F3.9°C 22.9°F-5.1°C 52% 4.0 mph NW6.4 kmh NW 12.0 mph19.3 kmh 30.34 in1027.4 mb 0.00 in0.0 mm 0.00 in0.0 mm 0.00 in0.0 mm
03:10 AM 39.3°F4.1°C 21.8°F-5.7°C 49% 8.0 mph NW12.9 kmh NW 11.0 mph17.7 kmh 30.34 in1027.4 mb 0.00 in0.0 mm 0.00 in0.0 mm 0.00 in0.0 mm
03:15 AM 39.5°F4.2°C 22.4°F-5.3°C 50% 8.0 mph NW12.9 kmh NW 11.0 mph17.7 kmh 30.34 in1027.4 mb 0.00 in0.0 mm 0.00 in0.0 mm 0.00 in0.0 mm
03:20 AM 39.7°F4.3°C 21.6°F-5.8°C 48% 10.0 mph WNW16.1 kmh WNW 13.0 mph20.9 kmh 30.34 in1027.4 mb 0.00 in0.0 mm 0.00 in0.0 mm 0.00 in0.0 mm
03:25 AM 39.8°F4.3°C 21.7°F-5.7°C 48% 9.0 mph NW14.5 kmh NW 10.0 mph16.1 kmh 30.34 in1027.4 mb 0.00 in0.0 mm 0.00 in0.0 mm 0.00 in0.0 mm
03:30 AM 39.8°F4.3°C 21.7°F-5.7°C 48% 6.0 mph NW9.7 kmh NW 11.0 mph17.7 kmh 30.34 in1027.4 mb 0.00 in0.0 mm 0.00 in0.0 mm 0.00 in0.0 mm
03:35 AM 39.7°F4.3°C 21.6°F-5.8°C 48% 8.0 mph NW12.9 kmh NW 13.0 mph20.9 kmh 30.35 in1027.8 mb 0.00 in0.0 mm 0.00 in0.0 mm 0.00 in0.0 mm
03:40 AM 39.7°F4.3°C 21.6°F-5.8°C 48% 9.0 mph NW14.5 kmh NW 12.0 mph19.3 kmh 30.35 in1027.8 mb 0.00 in0.0 mm 0.00 in0.0 mm 0.00 in0.0 mm
03:45 AM 39.5°F4.2°C 21.5°F-5.8°C 48% 6.0 mph NW9.7 kmh NW 12.0 mph19.3 kmh 30.35 in1027.8 mb 0.00 in0.0 mm 0.00 in0.0 mm 0.00 in0.0 mm
03:50 AM 39.4°F4.1°C 21.8°F-5.7°C 49% 7.0 mph NW11.3 kmh NW 12.0 mph19.3 kmh 30.35 in1027.8 mb 0.00 in0.0 mm 0.00 in0.0 mm 0.00 in0.0 mm
03:55 AM 39.3°F4.1°C 22.2°F-5.4°C 50% 2.0 mph NW3.2 kmh NW 7.0 mph11.3 kmh 30.35 in1027.8 mb 0.00 in0.0 mm 0.00 in0.0 mm 0.00 in0.0 mm
04:00 AM 38.9°F3.8°C 22.3°F-5.4°C 51% 7.0 mph NW11.3 kmh NW 11.0 mph17.7 kmh 30.35 in1027.8 mb 0.00 in0.0 mm 0.00 in0.0 mm 0.00 in0.0 mm
04:05 AM 38.9°F3.8°C 21.9°F-5.6°C 50% 9.0 mph NW14.5 kmh NW 11.0 mph17.7 kmh 30.35 in1027.8 mb 0.00 in0.0 mm 0.00 in0.0 mm 0.00 in0.0 mm
04:10 AM 38.8°F3.8°C 22.7°F-5.2°C 52% 8.0 mph NW12.9 kmh NW 8.0 mph12.9 kmh 30.36 in1028.1 mb 0.00 in0.0 mm 0.00 in0.0 mm 0.00 in0.0 mm
04:15 AM 38.7°F3.7°C 22.1°F-5.5°C 51% 3.0 mph NW4.8 kmh NW 10.0 mph16.1 kmh 30.36 in1028.1 mb 0.00 in0.0 mm 0.00 in0.0 mm 0.00 in0.0 mm
04:20 AM 38.7°F3.7°C 21.2°F-6.0°C 49% 7.0 mph NW11.3 kmh NW 12.0 mph19.3 kmh 30.36 in1028.1 mb 0.00 in0.0 mm 0.00 in0.0 mm 0.00 in0.0 mm
04:25 AM 38.7°F3.7°C 21.7°F-5.7°C 50% 8.0 mph NW12.9 kmh NW 11.0 mph17.7 kmh 30.36 in1028.1 mb 0.00 in0.0 mm 0.00 in0.0 mm 0.00 in0.0 mm
04:30 AM 38.6°F3.7°C 21.6°F-5.8°C 50% 12.0 mph NW19.3 kmh NW 12.0 mph19.3 kmh 30.36 in1028.1 mb 0.00 in0.0 mm 0.00 in0.0 mm 0.00 in0.0 mm
04:35 AM 38.6°F3.7°C 21.6°F-5.8°C 50% 9.0 mph NW14.5 kmh NW 12.0 mph19.3 kmh 30.36 in1028.1 mb 0.00 in0.0 mm 0.00 in0.0 mm 0.00 in0.0 mm
04:40 AM 38.5°F3.6°C 22.0°F-5.6°C 51% 7.0 mph NW11.3 kmh NW 8.0 mph12.9 kmh 30.36 in1028.1 mb 0.00 in0.0 mm 0.00 in0.0 mm 0.00 in0.0 mm
04:45 AM 38.4°F3.6°C 22.3°F-5.4°C 52% 3.0 mph NW4.8 kmh NW 12.0 mph19.3 kmh 30.36 in1028.1 mb 0.00 in0.0 mm 0.00 in0.0 mm 0.00 in0.0 mm
04:50 AM 38.2°F3.4°C 21.7°F-5.7°C 51% 5.0 mph NW8.0 kmh NW 12.0 mph19.3 kmh 30.37 in1028.4 mb 0.00 in0.0 mm 0.00 in0.0 mm 0.00 in0.0 mm
04:55 AM 38.1°F3.4°C 22.5°F-5.3°C 53% 5.0 mph NW8.0 kmh NW 8.0 mph12.9 kmh 30.37 in1028.4 mb 0.00 in0.0 mm 0.00 in0.0 mm 0.00 in0.0 mm
05:00 AM 37.9°F3.3°C 21.9°F-5.6°C 52% 2.0 mph WNW3.2 kmh WNW 8.0 mph12.9 kmh 30.37 in1028.4 mb 0.00 in0.0 mm 0.00 in0.0 mm 0.00 in0.0 mm
05:05 AM 37.7°F3.2°C 21.7°F-5.7°C 52% 4.0 mph WNW6.4 kmh WNW 9.0 mph14.5 kmh 30.37 in1028.4 mb 0.00 in0.0 mm 0.00 in0.0 mm 0.00 in0.0 mm
05:10 AM 37.6°F3.1°C 21.6°F-5.8°C 52% 7.0 mph WNW11.3 kmh WNW 8.0 mph12.9 kmh 30.37 in1028.4 mb 0.00 in0.0 mm 0.00 in0.0 mm 0.00 in0.0 mm
05:15 AM 37.5°F3.1°C 21.9°F-5.6°C 53% 3.0 mph NW4.8 kmh NW 9.0 mph14.5 kmh 30.38 in1028.8 mb 0.00 in0.0 mm 0.00 in0.0 mm 0.00 in0.0 mm
05:20 AM 37.4°F3.0°C 21.4°F-5.9°C 52% 3.0 mph WNW4.8 kmh WNW 9.0 mph14.5 kmh 30.38 in1028.8 mb 0.00 in0.0 mm 0.00 in0.0 mm 0.00 in0.0 mm
05:25 AM 37.3°F2.9°C 21.3°F-5.9°C 52% 7.0 mph WNW11.3 kmh WNW 7.0 mph11.3 kmh 30.38 in1028.8 mb 0.00 in0.0 mm 0.00 in0.0 mm 0.00 in0.0 mm
05:30 AM 37.3°F2.9°C 21.3°F-5.9°C 52% 3.0 mph WNW4.8 kmh WNW 9.0 mph14.5 kmh 30.39 in1029.1 mb 0.00 in0.0 mm 0.00 in0.0 mm 0.00 in0.0 mm
05:35 AM 37.2°F2.9°C 20.8°F-6.2°C 51% 4.0 mph WNW6.4 kmh WNW 11.0 mph17.7 kmh 30.39 in1029.1 mb 0.00 in0.0 mm 0.00 in0.0 mm 0.00 in0.0 mm
05:40 AM 37.2°F2.9°C 20.8°F-6.2°C 51% 4.0 mph WNW6.4 kmh WNW 7.0 mph11.3 kmh 30.39 in1029.1 mb 0.00 in0.0 mm 0.00 in0.0 mm 0.00 in0.0 mm
05:45 AM 37.3°F2.9°C 20.9°F-6.2°C 51% 3.0 mph WNW4.8 kmh WNW 12.0 mph19.3 kmh 30.39 in1029.1 mb 0.00 in0.0 mm 0.00 in0.0 mm 0.00 in0.0 mm
05:50 AM 37.4°F3.0°C 21.4°F-5.9°C 52% 6.0 mph W9.7 kmh W 12.0 mph19.3 kmh 30.40 in1029.5 mb 0.00 in0.0 mm 0.00 in0.0 mm 0.00 in0.0 mm
05:55 AM 37.4°F3.0°C 21.4°F-5.9°C 52% 4.0 mph WNW6.4 kmh WNW 7.0 mph11.3 kmh 30.40 in1029.5 mb 0.00 in0.0 mm 0.00 in0.0 mm 0.00 in0.0 mm
06:00 AM 37.3°F2.9°C 20.9°F-6.2°C 51% 5.0 mph WNW8.0 kmh WNW 9.0 mph14.5 kmh 30.40 in1029.5 mb 0.00 in0.0 mm 0.00 in0.0 mm 0.00 in0.0 mm
06:05 AM 37.3°F2.9°C 21.3°F-5.9°C 52% 7.0 mph WNW11.3 kmh WNW 9.0 mph14.5 kmh 30.40 in1029.5 mb 0.00 in0.0 mm 0.00 in0.0 mm 0.00 in0.0 mm
06:10 AM 37.3°F2.9°C 21.3°F-5.9°C 52% 4.0 mph NW6.4 kmh NW 5.0 mph8.0 kmh 30.40 in1029.5 mb 0.00 in0.0 mm 0.00 in0.0 mm 0.00 in0.0 mm
06:15 AM 37.5°F3.1°C 21.5°F-5.8°C 52% 4.0 mph NW6.4 kmh NW 10.0 mph16.1 kmh 30.40 in1029.5 mb 0.00 in0.0 mm 0.00 in0.0 mm 0.00 in0.0 mm
06:20 AM 37.6°F3.1°C 21.1°F-6.1°C 51% 4.0 mph NW6.4 kmh NW 10.0 mph16.1 kmh 30.41 in1029.8 mb 0.00 in0.0 mm 0.00 in0.0 mm 0.00 in0.0 mm
06:25 AM 37.8°F3.2°C 21.3°F-5.9°C 51% 4.0 mph WNW6.4 kmh WNW 8.0 mph12.9 kmh 30.41 in1029.8 mb 0.00 in0.0 mm 0.00 in0.0 mm 0.00 in0.0 mm
06:30 AM 38.1°F3.4°C 21.6°F-5.8°C 51% 4.0 mph WNW6.4 kmh WNW 10.0 mph16.1 kmh 30.41 in1029.8 mb 0.00 in0.0 mm 0.00 in0.0 mm 0.00 in0.0 mm
06:35 AM 38.2°F3.4°C 21.7°F-5.7°C 51% 7.0 mph WNW11.3 kmh WNW 10.0 mph16.1 kmh 30.42 in1030.1 mb 0.00 in0.0 mm 0.00 in0.0 mm 0.00 in0.0 mm
06:40 AM 38.6°F3.7°C 21.6°F-5.8°C 50% 8.0 mph WNW12.9 kmh WNW 8.0 mph12.9 kmh 30.41 in1029.8 mb 0.00 in0.0 mm 0.00 in0.0 mm 0.00 in0.0 mm
06:45 AM 38.9°F3.8°C 21.4°F-5.9°C 49% 5.0 mph WNW8.0 kmh WNW 9.0 mph14.5 kmh 30.41 in1029.8 mb 0.00 in0.0 mm 0.00 in0.0 mm 0.00 in0.0 mm
06:50 AM 39.1°F3.9°C 21.6°F-5.8°C 49% 4.0 mph WNW6.4 kmh WNW 9.0 mph14.5 kmh 30.42 in1030.1 mb 0.00 in0.0 mm 0.00 in0.0 mm 0.00 in0.0 mm
06:55 AM 39.3°F4.1°C 22.2°F-5.4°C 50% 2.0 mph NW3.2 kmh NW 7.0 mph11.3 kmh 30.42 in1030.1 mb 0.00 in0.0 mm 0.00 in0.0 mm 0.00 in0.0 mm
07:00 AM 39.5°F4.2°C 21.9°F-5.6°C 49% 4.0 mph WNW6.4 kmh WNW 10.0 mph16.1 kmh 30.42 in1030.1 mb 0.00 in0.0 mm 0.00 in0.0 mm 0.00 in0.0 mm
07:05 AM 39.6°F4.2°C 21.5°F-5.8°C 48% 9.0 mph NW14.5 kmh NW 11.0 mph17.7 kmh 30.42 in1030.1 mb 0.00 in0.0 mm 0.00 in0.0 mm 0.00 in0.0 mm
07:10 AM 39.7°F4.3°C 22.1°F-5.5°C 49% 4.0 mph WNW6.4 kmh WNW 7.0 mph11.3 kmh 30.42 in1030.1 mb 0.00 in0.0 mm 0.00 in0.0 mm 0.00 in0.0 mm
07:15 AM 39.9°F4.4°C 22.3°F-5.4°C 49% 12.0 mph NW19.3 kmh NW 13.0 mph20.9 kmh 30.42 in1030.1 mb 0.00 in0.0 mm 0.00 in0.0 mm 0.00 in0.0 mm
07:20 AM 39.9°F4.4°C 22.3°F-5.4°C 49% 9.0 mph NW14.5 kmh NW 15.0 mph24.1 kmh 30.42 in1030.1 mb 0.00 in0.0 mm 0.00 in0.0 mm 0.00 in0.0 mm
07:25 AM 40.0°F4.4°C 21.9°F-5.6°C 48% 10.0 mph NW16.1 kmh NW 10.0 mph16.1 kmh 30.42 in1030.1 mb 0.00 in0.0 mm 0.00 in0.0 mm 0.00 in0.0 mm
07:30 AM 40.2°F4.6°C 24.0°F-4.4°C 52% 4.0 mph NW6.4 kmh NW 14.0 mph22.5 kmh 30.43 in1030.5 mb 0.00 in0.0 mm 0.00 in0.0 mm 0.00 in0.0 mm
07:35 AM 40.4°F4.7°C 22.8°F-5.1°C 49% 4.0 mph NW6.4 kmh NW 14.0 mph22.5 kmh 30.43 in1030.5 mb 0.00 in0.0 mm 0.00 in0.0 mm 0.00 in0.0 mm
07:40 AM 40.6°F4.8°C 24.4°F-4.2°C 52% 8.0 mph NW12.9 kmh NW 13.0 mph20.9 kmh 30.43 in1030.5 mb 0.00 in0.0 mm 0.00 in0.0 mm 0.00 in0.0 mm
07:45 AM 41.0°F5.0°C 23.3°F-4.8°C 49% 10.0 mph NW16.1 kmh NW 13.0 mph20.9 kmh 30.43 in1030.5 mb 0.00 in0.0 mm 0.00 in0.0 mm 0.00 in0.0 mm
07:50 AM 40.9°F4.9°C 22.7°F-5.2°C 48% 3.0 mph NW4.8 kmh NW 13.0 mph20.9 kmh 30.44 in1030.8 mb 0.00 in0.0 mm 0.00 in0.0 mm 0.00 in0.0 mm
07:55 AM 41.1°F5.1°C 21.4°F-5.9°C 45% 3.0 mph WNW4.8 kmh WNW 7.0 mph11.3 kmh 30.44 in1030.8 mb 0.00 in0.0 mm 0.00 in0.0 mm 0.00 in0.0 mm
08:00 AM 41.4°F5.2°C 23.7°F-4.6°C 49% 11.0 mph NW17.7 kmh NW 12.0 mph19.3 kmh 30.44 in1030.8 mb 0.00 in0.0 mm 0.00 in0.0 mm 0.00 in0.0 mm
08:05 AM 41.1°F5.1°C 23.4°F-4.8°C 49% 9.0 mph NW14.5 kmh NW 12.0 mph19.3 kmh 30.44 in1030.8 mb 0.00 in0.0 mm 0.00 in0.0 mm 0.00 in0.0 mm
08:10 AM 41.4°F5.2°C 22.2°F-5.4°C 46% 7.0 mph WNW11.3 kmh WNW 9.0 mph14.5 kmh 30.44 in1030.8 mb 0.00 in0.0 mm 0.00 in0.0 mm 0.00 in0.0 mm
08:15 AM 41.7°F5.4°C 23.0°F-5.0°C 47% 10.0 mph NW16.1 kmh NW 13.0 mph20.9 kmh 30.44 in1030.8 mb 0.00 in0.0 mm 0.00 in0.0 mm 0.00 in0.0 mm
08:20 AM 41.5°F5.3°C 24.3°F-4.3°C 50% 6.0 mph NW9.7 kmh NW 13.0 mph20.9 kmh 30.44 in1030.8 mb 0.00 in0.0 mm 0.00 in0.0 mm 0.00 in0.0 mm
08:25 AM 41.5°F5.3°C 24.3°F-4.3°C 50% 10.0 mph NW16.1 kmh NW 13.0 mph20.9 kmh 30.44 in1030.8 mb 0.00 in0.0 mm 0.00 in0.0 mm 0.00 in0.0 mm
08:30 AM 41.9°F5.5°C 23.2°F-4.9°C 47% 5.0 mph NW8.0 kmh NW 13.0 mph20.9 kmh 30.45 in1031.2 mb 0.00 in0.0 mm 0.00 in0.0 mm 0.00 in0.0 mm
08:35 AM 42.0°F5.6°C 23.8°F-4.6°C 48% 5.0 mph WNW8.0 kmh WNW 13.0 mph20.9 kmh 30.44 in1030.8 mb 0.00 in0.0 mm 0.00 in0.0 mm 0.00 in0.0 mm
08:40 AM 42.2°F5.7°C 24.9°F-3.9°C 50% 7.0 mph NW11.3 kmh NW 10.0 mph16.1 kmh 30.45 in1031.2 mb 0.00 in0.0 mm 0.00 in0.0 mm 0.00 in0.0 mm
08:45 AM 42.9°F6.1°C 24.1°F-4.4°C 47% 8.0 mph WNW12.9 kmh WNW 11.0 mph17.7 kmh 30.45 in1031.2 mb 0.00 in0.0 mm 0.00 in0.0 mm 0.00 in0.0 mm
08:50 AM 42.7°F5.9°C 24.9°F-3.9°C 49% 4.0 mph NW6.4 kmh NW 11.0 mph17.7 kmh 30.45 in1031.2 mb 0.00 in0.0 mm 0.00 in0.0 mm 0.00 in0.0 mm
08:55 AM 42.4°F5.8°C 25.6°F-3.6°C 51% 5.0 mph NW8.0 kmh NW 10.0 mph16.1 kmh 30.45 in1031.2 mb 0.00 in0.0 mm 0.00 in0.0 mm 0.00 in0.0 mm
09:00 AM 42.7°F5.9°C 26.3°F-3.2°C 52% 9.0 mph NNW14.5 kmh NNW 10.0 mph16.1 kmh 30.45 in1031.2 mb 0.00 in0.0 mm 0.00 in0.0 mm 0.00 in0.0 mm
09:05 AM 42.4°F5.8°C 25.1°F-3.8°C 50% 6.0 mph NW9.7 kmh NW 12.0 mph19.3 kmh 30.45 in1031.2 mb 0.00 in0.0 mm 0.00 in0.0 mm 0.00 in0.0 mm
09:10 AM 42.6°F5.9°C 27.6°F-2.4°C 55% 8.0 mph N12.9 kmh N 10.0 mph16.1 kmh 30.45 in1031.2 mb 0.00 in0.0 mm 0.00 in0.0 mm 0.00 in0.0 mm
09:15 AM 42.4°F5.8°C 27.8°F-2.3°C 56% 8.0 mph N12.9 kmh N 13.0 mph20.9 kmh 30.46 in1031.5 mb 0.00 in0.0 mm 0.00 in0.0 mm 0.00 in0.0 mm
09:20 AM 42.6°F5.9°C 28.0°F-2.2°C 56% 6.0 mph NNW9.7 kmh NNW 13.0 mph20.9 kmh 30.46 in1031.5 mb 0.00 in0.0 mm 0.00 in0.0 mm 0.00 in0.0 mm
09:25 AM 42.9°F6.1°C 30.0°F-1.1°C 60% 10.0 mph N16.1 kmh N 12.0 mph19.3 kmh 30.46 in1031.5 mb 0.00 in0.0 mm 0.00 in0.0 mm 0.00 in0.0 mm
09:30 AM 42.7°F5.9°C 29.0°F-1.7°C 58% 6.0 mph N9.7 kmh N 12.0 mph19.3 kmh 30.46 in1031.5 mb 0.00 in0.0 mm 0.00 in0.0 mm 0.00 in0.0 mm
09:35 AM 42.5°F5.8°C 27.5°F-2.5°C 55% 8.0 mph N12.9 kmh N 12.0 mph19.3 kmh 30.46 in1031.5 mb 0.00 in0.0 mm 0.00 in0.0 mm 0.00 in0.0 mm
09:40 AM 42.4°F5.8°C 29.1°F-1.6°C 59% 5.0 mph N8.0 kmh N 8.0 mph12.9 kmh 30.47 in1031.8 mb 0.00 in0.0 mm 0.00 in0.0 mm 0.00 in0.0 mm
09:45 AM 42.5°F5.8°C 28.8°F-1.8°C 58% 6.0 mph N9.7 kmh N 11.0 mph17.7 kmh 30.47 in1031.8 mb 0.00 in0.0 mm 0.00 in0.0 mm 0.00 in0.0 mm
09:50 AM 42.6°F5.9°C 28.5°F-1.9°C 57% 5.0 mph N8.0 kmh N 12.0 mph19.3 kmh 30.47 in1031.8 mb 0.00 in0.0 mm 0.00 in0.0 mm 0.00 in0.0 mm
09:55 AM 42.6°F5.9°C 28.9°F-1.7°C 58% 10.0 mph N16.1 kmh N 10.0 mph16.1 kmh 30.47 in1031.8 mb 0.00 in0.0 mm 0.00 in0.0 mm 0.00 in0.0 mm
10:00 AM 42.6°F5.9°C 28.0°F-2.2°C 56% 9.0 mph N14.5 kmh N 11.0 mph17.7 kmh 30.47 in1031.8 mb 0.00 in0.0 mm 0.00 in0.0 mm 0.00 in0.0 mm
10:05 AM 42.6°F5.9°C 28.5°F-1.9°C 57% 6.0 mph N9.7 kmh N 11.0 mph17.7 kmh 30.47 in1031.8 mb 0.00 in0.0 mm 0.00 in0.0 mm 0.00 in0.0 mm
10:10 AM 42.7°F5.9°C 29.4°F-1.4°C 59% 8.0 mph N12.9 kmh N 9.0 mph14.5 kmh 30.47 in1031.8 mb 0.00 in0.0 mm 0.00 in0.0 mm 0.00 in0.0 mm
10:15 AM 42.8°F6.0°C 29.1°F-1.6°C 58% 6.0 mph N9.7 kmh N 11.0 mph17.7 kmh 30.47 in1031.8 mb 0.00 in0.0 mm 0.00 in0.0 mm 0.00 in0.0 mm
10:20 AM 42.8°F6.0°C 29.5°F-1.4°C 59% 5.0 mph N8.0 kmh N 11.0 mph17.7 kmh 30.47 in1031.8 mb 0.00 in0.0 mm 0.00 in0.0 mm 0.00 in0.0 mm
10:25 AM 42.8°F6.0°C 29.9°F-1.2°C 60% 5.0 mph N8.0 kmh N 6.0 mph9.7 kmh 30.47 in1031.8 mb 0.00 in0.0 mm 0.00 in0.0 mm 0.00 in0.0 mm
10:30 AM 43.0°F6.1°C 29.3°F-1.5°C 58% 5.0 mph N8.0 kmh N 9.0 mph14.5 kmh 30.47 in1031.8 mb 0.00 in0.0 mm 0.00 in0.0 mm 0.00 in0.0 mm
10:35 AM 43.3°F6.3°C 30.0°F-1.1°C 59% 8.0 mph N12.9 kmh N 10.0 mph16.1 kmh 30.47 in1031.8 mb 0.00 in0.0 mm 0.00 in0.0 mm 0.00 in0.0 mm
10:40 AM 43.4°F6.3°C 29.6°F-1.3°C 58% 9.0 mph N14.5 kmh N 10.0 mph16.1 kmh 30.47 in1031.8 mb 0.00 in0.0 mm 0.00 in0.0 mm 0.00 in0.0 mm
10:45 AM 43.2°F6.2°C 29.9°F-1.2°C 59% 7.0 mph NNE11.3 kmh NNE 10.0 mph16.1 kmh 30.46 in1031.5 mb 0.00 in0.0 mm 0.00 in0.0 mm 0.00 in0.0 mm
10:50 AM 43.3°F6.3°C 30.0°F-1.1°C 59% 8.0 mph NNE12.9 kmh NNE 10.0 mph16.1 kmh 30.46 in1031.5 mb 0.00 in0.0 mm 0.00 in0.0 mm 0.00 in0.0 mm
10:55 AM 43.4°F6.3°C 29.6°F-1.3°C 58% 8.0 mph NNE12.9 kmh NNE 9.0 mph14.5 kmh 30.46 in1031.5 mb 0.00 in0.0 mm 0.00 in0.0 mm 0.00 in0.0 mm
11:00 AM 43.7°F6.5°C 30.3°F-0.9°C 59% 8.0 mph NNE12.9 kmh NNE 10.0 mph16.1 kmh 30.46 in1031.5 mb 0.00 in0.0 mm 0.00 in0.0 mm 0.00 in0.0 mm
11:05 AM 43.7°F6.5°C 29.5°F-1.4°C 57% 8.0 mph NNE12.9 kmh NNE 10.0 mph16.1 kmh 30.46 in1031.5 mb 0.00 in0.0 mm 0.00 in0.0 mm 0.00 in0.0 mm
11:10 AM 43.7°F6.5°C 29.5°F-1.4°C 57% 9.0 mph NNE14.5 kmh NNE 10.0 mph16.1 kmh 30.46 in1031.5 mb 0.00 in0.0 mm 0.00 in0.0 mm 0.00 in0.0 mm
11:15 AM 43.8°F6.6°C 27.8°F-2.3°C 53% 9.0 mph NNE14.5 kmh NNE 10.0 mph16.1 kmh 30.46 in1031.5 mb 0.00 in0.0 mm 0.00 in0.0 mm 0.00 in0.0 mm
11:20 AM 44.0°F6.7°C 27.1°F-2.7°C 51% 6.0 mph NNE9.7 kmh NNE 10.0 mph16.1 kmh 30.46 in1031.5 mb 0.00 in0.0 mm 0.00 in0.0 mm 0.00 in0.0 mm
11:25 AM 43.9°F6.6°C 25.5°F-3.6°C 48% 6.0 mph NNE9.7 kmh NNE 8.0 mph12.9 kmh 30.46 in1031.5 mb 0.00 in0.0 mm 0.00 in0.0 mm 0.00 in0.0 mm
11:30 AM 44.2°F6.8°C 30.0°F-1.1°C 57% 8.0 mph NNE12.9 kmh NNE 9.0 mph14.5 kmh 30.46 in1031.5 mb 0.00 in0.0 mm 0.00 in0.0 mm 0.00 in0.0 mm
11:35 AM 44.4°F6.9°C 27.4°F-2.6°C 51% 6.0 mph NNE9.7 kmh NNE 9.0 mph14.5 kmh 30.46 in1031.5 mb 0.00 in0.0 mm 0.00 in0.0 mm 0.00 in0.0 mm
11:40 AM 44.2°F6.8°C 27.7°F-2.4°C 52% 6.0 mph NNE9.7 kmh NNE 9.0 mph14.5 kmh 30.46 in1031.5 mb 0.00 in0.0 mm 0.00 in0.0 mm 0.00 in0.0 mm
11:45 AM 44.1°F6.7°C 27.6°F-2.4°C 52% 6.0 mph NNE9.7 kmh NNE 9.0 mph14.5 kmh 30.46 in1031.5 mb 0.00 in0.0 mm 0.00 in0.0 mm 0.00 in0.0 mm
11:50 AM 44.3°F6.8°C 27.3°F-2.6°C 51% 6.0 mph NNE9.7 kmh NNE 9.0 mph14.5 kmh 30.46 in1031.5 mb 0.00 in0.0 mm 0.00 in0.0 mm 0.00 in0.0 mm
11:55 AM 44.5°F6.9°C 28.9°F-1.7°C 54% 6.0 mph NNE9.7 kmh NNE 9.0 mph14.5 kmh 30.46 in1031.5 mb 0.00 in0.0 mm 0.00 in0.0 mm 0.00 in0.0 mm
12:00 PM 44.8°F7.1°C 27.8°F-2.3°C 51% 6.0 mph NE9.7 kmh NE 9.0 mph14.5 kmh 30.46 in1031.5 mb 0.00 in0.0 mm 0.00 in0.0 mm 0.00 in0.0 mm
12:05 PM 44.8°F7.1°C 26.3°F-3.2°C 48% 5.0 mph NE8.0 kmh NE 9.0 mph14.5 kmh 30.45 in1031.2 mb 0.00 in0.0 mm 0.00 in0.0 mm 0.00 in0.0 mm
12:10 PM 44.9°F7.2°C 26.4°F-3.1°C 48% 5.0 mph NE8.0 kmh NE 5.0 mph8.0 kmh 30.45 in1031.2 mb 0.00 in0.0 mm 0.00 in0.0 mm 0.00 in0.0 mm
12:15 PM 44.9°F7.2°C 25.9°F-3.4°C 47% 5.0 mph NE8.0 kmh NE 6.0 mph9.7 kmh 30.45 in1031.2 mb 0.00 in0.0 mm 0.00 in0.0 mm 0.00 in0.0 mm
12:20 PM 44.7°F7.1°C 27.2°F-2.7°C 50% 6.0 mph NE9.7 kmh NE 6.0 mph9.7 kmh 30.45 in1031.2 mb 0.00 in0.0 mm 0.00 in0.0 mm 0.00 in0.0 mm
12:25 PM 44.9°F7.2°C 28.4°F-2.0°C 52% 6.0 mph NE9.7 kmh NE 9.0 mph14.5 kmh 30.45 in1031.2 mb 0.00 in0.0 mm 0.00 in0.0 mm 0.00 in0.0 mm
12:30 PM 44.9°F7.2°C 26.4°F-3.1°C 48% 7.0 mph NE11.3 kmh NE 9.0 mph14.5 kmh 30.45 in1031.2 mb 0.00 in0.0 mm 0.00 in0.0 mm 0.00 in0.0 mm
12:35 PM 44.9°F7.2°C 25.4°F-3.7°C 46% 7.0 mph NE11.3 kmh NE 9.0 mph14.5 kmh 30.45 in1031.2 mb 0.00 in0.0 mm 0.00 in0.0 mm 0.00 in0.0 mm
12:40 PM 45.1°F7.3°C 26.6°F-3.0°C 48% 7.0 mph NE11.3 kmh NE 9.0 mph14.5 kmh 30.45 in1031.2 mb 0.00 in0.0 mm 0.00 in0.0 mm 0.00 in0.0 mm
12:45 PM 45.6°F7.6°C 28.5°F-1.9°C 51% 7.0 mph NE11.3 kmh NE 9.0 mph14.5 kmh 30.44 in1030.8 mb 0.00 in0.0 mm 0.00 in0.0 mm 0.00 in0.0 mm
12:50 PM 45.6°F7.6°C 26.6°F-3.0°C 47% 10.0 mph NE16.1 kmh NE 11.0 mph17.7 kmh 30.43 in1030.5 mb 0.00 in0.0 mm 0.00 in0.0 mm 0.00 in0.0 mm
12:55 PM 45.7°F7.6°C 29.1°F-1.6°C 52% 9.0 mph NE14.5 kmh NE 10.0 mph16.1 kmh 30.43 in1030.5 mb 0.00 in0.0 mm 0.00 in0.0 mm 0.00 in0.0 mm
01:00 PM 45.8°F7.7°C 27.2°F-2.7°C 48% 9.0 mph NE14.5 kmh NE 11.0 mph17.7 kmh 30.43 in1030.5 mb 0.00 in0.0 mm 0.00 in0.0 mm 0.00 in0.0 mm
01:05 PM 46.0°F7.8°C 27.9°F-2.3°C 49% 7.0 mph NE11.3 kmh NE 11.0 mph17.7 kmh 30.43 in1030.5 mb 0.00 in0.0 mm 0.00 in0.0 mm 0.00 in0.0 mm
01:10 PM 45.9°F7.7°C 26.3°F-3.2°C 46% 6.0 mph NE9.7 kmh NE 7.0 mph11.3 kmh 30.43 in1030.5 mb 0.00 in0.0 mm 0.00 in0.0 mm 0.00 in0.0 mm
01:15 PM 46.2°F7.9°C 26.6°F-3.0°C 46% 6.0 mph NE9.7 kmh NE 7.0 mph11.3 kmh 30.43 in1030.5 mb 0.00 in0.0 mm 0.00 in0.0 mm 0.00 in0.0 mm
01:20 PM 46.2°F7.9°C 27.1°F-2.7°C 47% 4.0 mph NE6.4 kmh NE 7.0 mph11.3 kmh 30.43 in1030.5 mb 0.00 in0.0 mm 0.00 in0.0 mm 0.00 in0.0 mm
01:25 PM 46.0°F7.8°C 25.3°F-3.7°C 44% 4.0 mph NE6.4 kmh NE 5.0 mph8.0 kmh 30.43 in1030.5 mb 0.00 in0.0 mm 0.00 in0.0 mm 0.00 in0.0 mm
01:30 PM 46.1°F7.8°C 25.4°F-3.7°C 44% 5.0 mph NE8.0 kmh NE 5.0 mph8.0 kmh 30.43 in1030.5 mb 0.00 in0.0 mm 0.00 in0.0 mm 0.00 in0.0 mm
01:35 PM 46.2°F7.9°C 28.1°F-2.2°C 49% 5.0 mph NE8.0 kmh NE 6.0 mph9.7 kmh 30.43 in1030.5 mb 0.00 in0.0 mm 0.00 in0.0 mm 0.00 in0.0 mm
01:40 PM 46.2°F7.9°C 28.6°F-1.9°C 50% 8.0 mph NE12.9 kmh NE 8.0 mph12.9 kmh 30.43 in1030.5 mb 0.00 in0.0 mm 0.00 in0.0 mm 0.00 in0.0 mm
01:45 PM 45.9°F7.7°C 28.3°F-2.1°C 50% 8.0 mph NNE12.9 kmh NNE 10.0 mph16.1 kmh 30.43 in1030.5 mb 0.00 in0.0 mm 0.00 in0.0 mm 0.00 in0.0 mm
01:50 PM 46.0°F7.8°C 27.9°F-2.3°C 49% 5.0 mph NNE8.0 kmh NNE 10.0 mph16.1 kmh 30.43 in1030.5 mb 0.00 in0.0 mm 0.00 in0.0 mm 0.00 in0.0 mm
01:55 PM 46.1°F7.8°C 29.9°F-1.2°C 53% 6.0 mph NNE9.7 kmh NNE 8.0 mph12.9 kmh 30.43 in1030.5 mb 0.00 in0.0 mm 0.00 in0.0 mm 0.00 in0.0 mm
02:00 PM 46.1°F7.8°C 29.9°F-1.2°C 53% 5.0 mph NNE8.0 kmh NNE 8.0 mph12.9 kmh 30.43 in1030.5 mb 0.00 in0.0 mm 0.00 in0.0 mm 0.00 in0.0 mm
02:05 PM 46.1°F7.8°C 30.4°F-0.9°C 54% 6.0 mph NNE9.7 kmh NNE 9.0 mph14.5 kmh 30.43 in1030.5 mb 0.00 in0.0 mm 0.00 in0.0 mm 0.00 in0.0 mm
02:10 PM 46.4°F8.0°C 29.8°F-1.2°C 52% 5.0 mph NNE8.0 kmh NNE 6.0 mph9.7 kmh 30.43 in1030.5 mb 0.00 in0.0 mm 0.00 in0.0 mm 0.00 in0.0 mm
02:15 PM 46.6°F8.1°C 31.8°F-0.1°C 56% 6.0 mph NNE9.7 kmh NNE 8.0 mph12.9 kmh 30.43 in1030.5 mb 0.00 in0.0 mm 0.00 in0.0 mm 0.00 in0.0 mm
02:20 PM 46.7°F8.2°C 29.1°F-1.6°C 50% 5.0 mph NNE8.0 kmh NNE 8.0 mph12.9 kmh 30.42 in1030.1 mb 0.00 in0.0 mm 0.00 in0.0 mm 0.00 in0.0 mm
02:25 PM 46.8°F8.2°C 31.5°F-0.3°C 55% 7.0 mph N11.3 kmh N 8.0 mph12.9 kmh 30.42 in1030.1 mb 0.00 in0.0 mm 0.00 in0.0 mm 0.00 in0.0 mm
02:30 PM 46.5°F8.1°C 30.3°F-0.9°C 53% 7.0 mph N11.3 kmh N 8.0 mph12.9 kmh 30.42 in1030.1 mb 0.00 in0.0 mm 0.00 in0.0 mm 0.00 in0.0 mm
02:35 PM 46.5°F8.1°C 32.5°F0.3°C 58% 5.0 mph N8.0 kmh N 8.0 mph12.9 kmh 30.42 in1030.1 mb 0.00 in0.0 mm 0.00 in0.0 mm 0.00 in0.0 mm
02:40 PM 46.5°F8.1°C 31.7°F-0.2°C 56% 7.0 mph N11.3 kmh N 8.0 mph12.9 kmh 30.42 in1030.1 mb 0.00 in0.0 mm 0.00 in0.0 mm 0.00 in0.0 mm
02:45 PM 46.5°F8.1°C 31.2°F-0.4°C 55% 7.0 mph N11.3 kmh N 8.0 mph12.9 kmh 30.41 in1029.8 mb 0.00 in0.0 mm 0.00 in0.0 mm 0.00 in0.0 mm
02:50 PM 46.6°F8.1°C 31.8°F-0.1°C 56% 7.0 mph N11.3 kmh N 8.0 mph12.9 kmh 30.41 in1029.8 mb 0.00 in0.0 mm 0.00 in0.0 mm 0.00 in0.0 mm
02:55 PM 46.9°F8.3°C 31.1°F-0.5°C 54% 5.0 mph N8.0 kmh N 7.0 mph11.3 kmh 30.41 in1029.8 mb 0.00 in0.0 mm 0.00 in0.0 mm 0.00 in0.0 mm
03:00 PM 46.8°F8.2°C 30.6°F-0.8°C 53% 8.0 mph N12.9 kmh N 8.0 mph12.9 kmh 30.41 in1029.8 mb 0.00 in0.0 mm 0.00 in0.0 mm 0.00 in0.0 mm
03:05 PM 46.9°F8.3°C 30.7°F-0.7°C 53% 7.0 mph N11.3 kmh N 8.0 mph12.9 kmh 30.40 in1029.5 mb 0.00 in0.0 mm 0.00 in0.0 mm 0.00 in0.0 mm
03:10 PM 47.2°F8.4°C 29.5°F-1.4°C 50% 5.0 mph N8.0 kmh N 5.0 mph8.0 kmh 30.40 in1029.5 mb 0.00 in0.0 mm 0.00 in0.0 mm 0.00 in0.0 mm
03:15 PM 46.9°F8.3°C 31.6°F-0.2°C 55% 5.0 mph N8.0 kmh N 7.0 mph11.3 kmh 30.40 in1029.5 mb 0.00 in0.0 mm 0.00 in0.0 mm 0.00 in0.0 mm
03:20 PM 46.9°F8.3°C 30.2°F-1.0°C 52% 2.0 mph N3.2 kmh N 7.0 mph11.3 kmh 30.40 in1029.5 mb 0.00 in0.0 mm 0.00 in0.0 mm 0.00 in0.0 mm
03:25 PM 47.0°F8.3°C 27.8°F-2.3°C 47% 4.0 mph N6.4 kmh N 7.0 mph11.3 kmh 30.40 in1029.5 mb 0.00 in0.0 mm 0.00 in0.0 mm 0.00 in0.0 mm
03:30 PM 47.1°F8.4°C 30.4°F-0.9°C 52% 4.0 mph N6.4 kmh N 8.0 mph12.9 kmh 30.40 in1029.5 mb 0.00 in0.0 mm 0.00 in0.0 mm 0.00 in0.0 mm
03:35 PM 47.0°F8.3°C 32.6°F0.3°C 57% 5.0 mph N8.0 kmh N 8.0 mph12.9 kmh 30.40 in1029.5 mb 0.00 in0.0 mm 0.00 in0.0 mm 0.00 in0.0 mm
03:40 PM 47.1°F8.4°C 31.8°F-0.1°C 55% 4.0 mph N6.4 kmh N 4.0 mph6.4 kmh 30.40 in1029.5 mb 0.00 in0.0 mm 0.00 in0.0 mm 0.00 in0.0 mm
03:45 PM 47.1°F8.4°C 31.8°F-0.1°C 55% 5.0 mph N8.0 kmh N 5.0 mph8.0 kmh 30.40 in1029.5 mb 0.00 in0.0 mm 0.00 in0.0 mm 0.00 in0.0 mm
03:50 PM 47.1°F8.4°C 32.2°F0.1°C 56% 2.0 mph N3.2 kmh N 7.0 mph11.3 kmh 30.39 in1029.1 mb 0.00 in0.0 mm 0.00 in0.0 mm 0.00 in0.0 mm
03:55 PM 47.1°F8.4°C 30.4°F-0.9°C 52% 4.0 mph N6.4 kmh N 5.0 mph8.0 kmh 30.39 in1029.1 mb 0.00 in0.0 mm 0.00 in0.0 mm 0.00 in0.0 mm
04:00 PM 47.1°F8.4°C 30.4°F-0.9°C 52% 4.0 mph N6.4 kmh N 7.0 mph11.3 kmh 30.38 in1028.8 mb 0.00 in0.0 mm 0.00 in0.0 mm 0.00 in0.0 mm
04:05 PM 47.1°F8.4°C 30.9°F-0.6°C 53% 5.0 mph N8.0 kmh N 7.0 mph11.3 kmh 30.39 in1029.1 mb 0.00 in0.0 mm 0.00 in0.0 mm 0.00 in0.0 mm
04:10 PM 47.0°F8.3°C 30.3°F-0.9°C 52% 4.0 mph N6.4 kmh N 7.0 mph11.3 kmh 30.38 in1028.8 mb 0.00 in0.0 mm 0.00 in0.0 mm 0.00 in0.0 mm
04:15 PM 47.0°F8.3°C 31.2°F-0.4°C 54% 5.0 mph N8.0 kmh N 8.0 mph12.9 kmh 30.38 in1028.8 mb 0.00 in0.0 mm 0.00 in0.0 mm 0.00 in0.0 mm
04:20 PM 47.0°F8.3°C 32.1°F0.1°C 56% 8.0 mph N12.9 kmh N 8.0 mph12.9 kmh 30.38 in1028.8 mb 0.00 in0.0 mm 0.00 in0.0 mm 0.00 in0.0 mm
04:25 PM 47.1°F8.4°C 31.3°F-0.4°C 54% 5.0 mph N8.0 kmh N 7.0 mph11.3 kmh 30.38 in1028.8 mb 0.00 in0.0 mm 0.00 in0.0 mm 0.00 in0.0 mm
04:30 PM 47.1°F8.4°C 31.3°F-0.4°C 54% 8.0 mph N12.9 kmh N 9.0 mph14.5 kmh 30.38 in1028.8 mb 0.00 in0.0 mm 0.00 in0.0 mm 0.00 in0.0 mm
04:35 PM 47.0°F8.3°C 31.2°F-0.4°C 54% 8.0 mph N12.9 kmh N 9.0 mph14.5 kmh 30.38 in1028.8 mb 0.00 in0.0 mm 0.00 in0.0 mm 0.00 in0.0 mm
04:40 PM 47.0°F8.3°C 31.2°F-0.4°C 54% 8.0 mph N12.9 kmh N 9.0 mph14.5 kmh 30.38 in1028.8 mb 0.00 in0.0 mm 0.00 in0.0 mm 0.00 in0.0 mm
04:45 PM 47.0°F8.3°C 30.8°F-0.7°C 53% 8.0 mph N12.9 kmh N 9.0 mph14.5 kmh 30.38 in1028.8 mb 0.00 in0.0 mm 0.00 in0.0 mm 0.00 in0.0 mm
04:50 PM 47.0°F8.3°C 30.8°F-0.7°C 53% 8.0 mph N12.9 kmh N 9.0 mph14.5 kmh 30.38 in1028.8 mb 0.00 in0.0 mm 0.00 in0.0 mm 0.00 in0.0 mm
04:55 PM 47.0°F8.3°C 32.1°F0.1°C 56% 8.0 mph N12.9 kmh N 9.0 mph14.5 kmh 30.38 in1028.8 mb 0.00 in0.0 mm 0.00 in0.0 mm 0.00 in0.0 mm
05:00 PM 47.0°F8.3°C 33.4°F0.8°C 59% 8.0 mph N12.9 kmh N 9.0 mph14.5 kmh 30.38 in1028.8 mb 0.00 in0.0 mm 0.00 in0.0 mm 0.00 in0.0 mm
05:05 PM 47.2°F8.4°C 31.4°F-0.3°C 54% 7.0 mph N11.3 kmh N 10.0 mph16.1 kmh 30.38 in1028.8 mb 0.00 in0.0 mm 0.00 in0.0 mm 0.00 in0.0 mm
05:10 PM 47.2°F8.4°C 33.2°F0.7°C 58% 9.0 mph NE14.5 kmh NE 10.0 mph16.1 kmh 30.38 in1028.8 mb 0.00 in0.0 mm 0.00 in0.0 mm 0.00 in0.0 mm
05:15 PM 47.1°F8.4°C 32.2°F0.1°C 56% 6.0 mph NE9.7 kmh NE 10.0 mph16.1 kmh 30.39 in1029.1 mb 0.00 in0.0 mm 0.00 in0.0 mm 0.00 in0.0 mm
05:20 PM 47.0°F8.3°C 32.1°F0.1°C 56% 6.0 mph NE9.7 kmh NE 10.0 mph16.1 kmh 30.39 in1029.1 mb 0.00 in0.0 mm 0.00 in0.0 mm 0.00 in0.0 mm
05:25 PM 46.8°F8.2°C 32.0°F0.0°C 56% 9.0 mph NE14.5 kmh NE 10.0 mph16.1 kmh 30.39 in1029.1 mb 0.00 in0.0 mm 0.00 in0.0 mm 0.00 in0.0 mm
05:30 PM 46.7°F8.2°C 31.9°F-0.1°C 56% 7.0 mph NE11.3 kmh NE 10.0 mph16.1 kmh 30.39 in1029.1 mb 0.00 in0.0 mm 0.00 in0.0 mm 0.00 in0.0 mm
05:35 PM 46.8°F8.2°C 32.8°F0.4°C 58% 9.0 mph NE14.5 kmh NE 10.0 mph16.1 kmh 30.39 in1029.1 mb 0.00 in0.0 mm 0.00 in0.0 mm 0.00 in0.0 mm
05:40 PM 46.7°F8.2°C 33.6°F0.9°C 60% 10.0 mph NE16.1 kmh NE 10.0 mph16.1 kmh 30.39 in1029.1 mb 0.00 in0.0 mm 0.00 in0.0 mm 0.00 in0.0 mm
05:45 PM 46.7°F8.2°C 32.7°F0.4°C 58% 10.0 mph NE16.1 kmh NE 11.0 mph17.7 kmh 30.39 in1029.1 mb 0.00 in0.0 mm 0.00 in0.0 mm 0.00 in0.0 mm
05:50 PM 46.6°F8.1°C 33.1°F0.6°C 59% 10.0 mph NE16.1 kmh NE 11.0 mph17.7 kmh 30.39 in1029.1 mb 0.00 in0.0 mm 0.00 in0.0 mm 0.00 in0.0 mm
05:55 PM 46.5°F8.1°C 33.0°F0.6°C 59% 10.0 mph NE16.1 kmh NE 10.0 mph16.1 kmh 30.39 in1029.1 mb 0.00 in0.0 mm 0.00 in0.0 mm 0.00 in0.0 mm
06:00 PM 46.6°F8.1°C 33.1°F0.6°C 59% 9.0 mph NE14.5 kmh NE 11.0 mph17.7 kmh 30.39 in1029.1 mb 0.00 in0.0 mm 0.00 in0.0 mm 0.00 in0.0 mm
06:05 PM 46.7°F8.2°C 32.7°F0.4°C 58% 10.0 mph NE16.1 kmh NE 12.0 mph19.3 kmh 30.39 in1029.1 mb 0.00 in0.0 mm 0.00 in0.0 mm 0.00 in0.0 mm
06:10 PM 46.9°F8.3°C 32.5°F0.3°C 57% 10.0 mph NE16.1 kmh NE 11.0 mph17.7 kmh 30.39 in1029.1 mb 0.00 in0.0 mm 0.00 in0.0 mm 0.00 in0.0 mm
06:15 PM 47.0°F8.3°C 33.9°F1.1°C 60% 10.0 mph NE16.1 kmh NE 12.0 mph19.3 kmh 30.39 in1029.1 mb 0.00 in0.0 mm 0.00 in0.0 mm 0.00 in0.0 mm
06:20 PM 46.8°F8.2°C 33.7°F0.9°C 60% 11.0 mph NE17.7 kmh NE 12.0 mph19.3 kmh 30.40 in1029.5 mb 0.00 in0.0 mm 0.00 in0.0 mm 0.00 in0.0 mm
06:25 PM 46.7°F8.2°C 34.8°F1.6°C 63% 9.0 mph NE14.5 kmh NE 10.0 mph16.1 kmh 30.39 in1029.1 mb 0.00 in0.0 mm 0.00 in0.0 mm 0.00 in0.0 mm
06:30 PM 46.5°F8.1°C 34.2°F1.2°C 62% 10.0 mph NE16.1 kmh NE 12.0 mph19.3 kmh 30.39 in1029.1 mb 0.00 in0.0 mm 0.00 in0.0 mm 0.00 in0.0 mm
06:35 PM 46.5°F8.1°C 33.4°F0.8°C 60% 12.0 mph ENE19.3 kmh ENE 13.0 mph20.9 kmh 30.39 in1029.1 mb 0.00 in0.0 mm 0.00 in0.0 mm 0.00 in0.0 mm
06:40 PM 46.4°F8.0°C 33.7°F0.9°C 61% 10.0 mph ENE16.1 kmh ENE 12.0 mph19.3 kmh 30.39 in1029.1 mb 0.00 in0.0 mm 0.00 in0.0 mm 0.00 in0.0 mm
06:45 PM 46.2°F7.9°C 34.3°F1.3°C 63% 10.0 mph ENE16.1 kmh ENE 12.0 mph19.3 kmh 30.39 in1029.1 mb 0.00 in0.0 mm 0.00 in0.0 mm 0.00 in0.0 mm
06:50 PM 46.1°F7.8°C 33.8°F1.0°C 62% 10.0 mph ENE16.1 kmh ENE 12.0 mph19.3 kmh 30.39 in1029.1 mb 0.00 in0.0 mm 0.00 in0.0 mm 0.00 in0.0 mm
06:55 PM 45.9°F7.7°C 33.6°F0.9°C 62% 10.0 mph ENE16.1 kmh ENE 12.0 mph19.3 kmh 30.39 in1029.1 mb 0.00 in0.0 mm 0.00 in0.0 mm 0.00 in0.0 mm
07:00 PM 45.8°F7.7°C 33.5°F0.8°C 62% 10.0 mph E16.1 kmh E 12.0 mph19.3 kmh 30.40 in1029.5 mb 0.00 in0.0 mm 0.00 in0.0 mm 0.00 in0.0 mm
07:05 PM 45.6°F7.6°C 33.8°F1.0°C 63% 8.0 mph E12.9 kmh E 12.0 mph19.3 kmh 30.41 in1029.8 mb 0.00 in0.0 mm 0.00 in0.0 mm 0.00 in0.0 mm
07:10 PM 45.5°F7.5°C 33.3°F0.7°C 62% 7.0 mph E11.3 kmh E 8.0 mph12.9 kmh 30.41 in1029.8 mb 0.00 in0.0 mm 0.00 in0.0 mm 0.00 in0.0 mm
07:15 PM 45.4°F7.4°C 33.2°F0.7°C 62% 7.0 mph E11.3 kmh E 9.0 mph14.5 kmh 30.41 in1029.8 mb 0.00 in0.0 mm 0.00 in0.0 mm 0.00 in0.0 mm
07:20 PM 45.3°F7.4°C 33.5°F0.8°C 63% 7.0 mph E11.3 kmh E 9.0 mph14.5 kmh 30.41 in1029.8 mb 0.00 in0.0 mm 0.00 in0.0 mm 0.00 in0.0 mm
07:25 PM 45.2°F7.3°C 33.8°F1.0°C 64% 7.0 mph E11.3 kmh E 7.0 mph11.3 kmh 30.41 in1029.8 mb 0.00 in0.0 mm 0.00 in0.0 mm 0.00 in0.0 mm
07:30 PM 45.2°F7.3°C 33.8°F1.0°C 64% 8.0 mph E12.9 kmh E 9.0 mph14.5 kmh 30.41 in1029.8 mb 0.00 in0.0 mm 0.00 in0.0 mm 0.00 in0.0 mm
07:35 PM 45.1°F7.3°C 34.1°F1.2°C 65% 8.0 mph E12.9 kmh E 11.0 mph17.7 kmh 30.42 in1030.1 mb 0.00 in0.0 mm 0.00 in0.0 mm 0.00 in0.0 mm
07:40 PM 45.1°F7.3°C 34.4°F1.3°C 66% 12.0 mph E19.3 kmh E 13.0 mph20.9 kmh 30.42 in1030.1 mb 0.00 in0.0 mm 0.00 in0.0 mm 0.00 in0.0 mm
07:45 PM 44.9°F7.2°C 33.9°F1.1°C 65% 9.0 mph E14.5 kmh E 13.0 mph20.9 kmh 30.42 in1030.1 mb 0.00 in0.0 mm 0.00 in0.0 mm 0.00 in0.0 mm
07:50 PM 44.8°F7.1°C 34.2°F1.2°C 66% 12.0 mph ENE19.3 kmh ENE 14.0 mph22.5 kmh 30.42 in1030.1 mb 0.00 in0.0 mm 0.00 in0.0 mm 0.00 in0.0 mm
07:55 PM 44.8°F7.1°C 34.5°F1.4°C 67% 10.0 mph E16.1 kmh E 12.0 mph19.3 kmh 30.42 in1030.1 mb 0.00 in0.0 mm 0.00 in0.0 mm 0.00 in0.0 mm
08:00 PM 44.7°F7.1°C 34.1°F1.2°C 66% 13.0 mph ENE20.9 kmh ENE 17.0 mph27.4 kmh 30.42 in1030.1 mb 0.00 in0.0 mm 0.00 in0.0 mm 0.00 in0.0 mm
08:05 PM 44.7°F7.1°C 34.8°F1.6°C 68% 14.0 mph ENE22.5 kmh ENE 17.0 mph27.4 kmh 30.42 in1030.1 mb 0.00 in0.0 mm 0.00 in0.0 mm 0.00 in0.0 mm
08:10 PM 44.7°F7.1°C 35.2°F1.8°C 69% 13.0 mph NE20.9 kmh NE 17.0 mph27.4 kmh 30.43 in1030.5 mb 0.00 in0.0 mm 0.00 in0.0 mm 0.00 in0.0 mm
08:15 PM 44.7°F7.1°C 34.8°F1.6°C 68% 13.0 mph NE20.9 kmh NE 17.0 mph27.4 kmh 30.42 in1030.1 mb 0.00 in0.0 mm 0.00 in0.0 mm 0.00 in0.0 mm
08:20 PM 44.6°F7.0°C 34.3°F1.3°C 67% 15.0 mph NE24.1 kmh NE 18.0 mph29.0 kmh 30.43 in1030.5 mb 0.00 in0.0 mm 0.00 in0.0 mm 0.00 in0.0 mm
08:25 PM 44.5°F6.9°C 34.2°F1.2°C 67% 16.0 mph NE25.7 kmh NE 17.0 mph27.4 kmh 30.43 in1030.5 mb 0.00 in0.0 mm 0.00 in0.0 mm 0.00 in0.0 mm
08:30 PM 44.4°F6.9°C 34.9°F1.6°C 69% 13.0 mph NE20.9 kmh NE 17.0 mph27.4 kmh 30.42 in1030.1 mb 0.00 in0.0 mm 0.00 in0.0 mm 0.00 in0.0 mm
08:35 PM 44.3°F6.8°C 34.1°F1.2°C 67% 17.0 mph NE27.4 kmh NE 19.0 mph30.6 kmh 30.42 in1030.1 mb 0.00 in0.0 mm 0.00 in0.0 mm 0.00 in0.0 mm
08:40 PM 44.3°F6.8°C 34.1°F1.2°C 67% 16.0 mph NE25.7 kmh NE 16.0 mph25.7 kmh 30.42 in1030.1 mb 0.00 in0.0 mm 0.00 in0.0 mm 0.00 in0.0 mm
08:45 PM 44.1°F6.7°C 33.5°F0.8°C 66% 17.0 mph NE27.4 kmh NE 19.0 mph30.6 kmh 30.42 in1030.1 mb 0.00 in0.0 mm 0.00 in0.0 mm 0.00 in0.0 mm
08:50 PM 44.0°F6.7°C 33.4°F0.8°C 66% 19.0 mph NE30.6 kmh NE 21.0 mph33.8 kmh 30.42 in1030.1 mb 0.00 in0.0 mm 0.00 in0.0 mm 0.00 in0.0 mm
08:55 PM 43.9°F6.6°C 33.3°F0.7°C 66% 17.0 mph NE27.4 kmh NE 18.0 mph29.0 kmh 30.41 in1029.8 mb 0.00 in0.0 mm 0.00 in0.0 mm 0.00 in0.0 mm
09:00 PM 43.9°F6.6°C 33.7°F0.9°C 67% 18.0 mph NE29.0 kmh NE 20.0 mph32.2 kmh 30.41 in1029.8 mb 0.00 in0.0 mm 0.00 in0.0 mm 0.00 in0.0 mm
09:05 PM 43.6°F6.4°C 33.0°F0.6°C 66% 14.0 mph NE22.5 kmh NE 20.0 mph32.2 kmh 30.42 in1030.1 mb 0.00 in0.0 mm 0.00 in0.0 mm 0.00 in0.0 mm
09:10 PM 43.5°F6.4°C 33.7°F0.9°C 68% 15.0 mph NE24.1 kmh NE 18.0 mph29.0 kmh 30.42 in1030.1 mb 0.00 in0.0 mm 0.00 in0.0 mm 0.00 in0.0 mm
09:15 PM 43.4°F6.3°C 33.9°F1.1°C 69% 16.0 mph NE25.7 kmh NE 20.0 mph32.2 kmh 30.42 in1030.1 mb 0.00 in0.0 mm 0.00 in0.0 mm 0.00 in0.0 mm
09:20 PM 43.3°F6.3°C 33.5°F0.8°C 68% 16.0 mph NE25.7 kmh NE 20.0 mph32.2 kmh 30.42 in1030.1 mb 0.00 in0.0 mm 0.00 in0.0 mm 0.00 in0.0 mm
09:25 PM 43.1°F6.2°C 33.3°F0.7°C 68% 15.0 mph NE24.1 kmh NE 16.0 mph25.7 kmh 30.42 in1030.1 mb 0.00 in0.0 mm 0.00 in0.0 mm 0.00 in0.0 mm
09:30 PM 43.0°F6.1°C 33.9°F1.1°C 70% 17.0 mph NE27.4 kmh NE 18.0 mph29.0 kmh 30.42 in1030.1 mb 0.00 in0.0 mm 0.00 in0.0 mm 0.00 in0.0 mm
09:35 PM 42.9°F6.1°C 33.8°F1.0°C 70% 17.0 mph NE27.4 kmh NE 19.0 mph30.6 kmh 30.42 in1030.1 mb 0.00 in0.0 mm 0.00 in0.0 mm 0.00 in0.0 mm
09:40 PM 43.1°F6.2°C 34.4°F1.3°C 71% 17.0 mph NE27.4 kmh NE 19.0 mph30.6 kmh 30.42 in1030.1 mb 0.00 in0.0 mm 0.00 in0.0 mm 0.00 in0.0 mm
09:45 PM 43.0°F6.1°C 34.6°F1.4°C 72% 14.0 mph NE22.5 kmh NE 19.0 mph30.6 kmh 30.42 in1030.1 mb 0.00 in0.0 mm 0.00 in0.0 mm 0.00 in0.0 mm
09:50 PM 42.9°F6.1°C 34.9°F1.6°C 73% 13.0 mph NE20.9 kmh NE 19.0 mph30.6 kmh 30.42 in1030.1 mb 0.00 in0.0 mm 0.00 in0.0 mm 0.00 in0.0 mm
09:55 PM 42.8°F6.0°C 34.8°F1.6°C 73% 16.0 mph NE25.7 kmh NE 17.0 mph27.4 kmh 30.42 in1030.1 mb 0.00 in0.0 mm 0.00 in0.0 mm 0.00 in0.0 mm
10:00 PM 42.7°F5.9°C 34.7°F1.5°C 73% 15.0 mph NE24.1 kmh NE 17.0 mph27.4 kmh 30.42 in1030.1 mb 0.00 in0.0 mm 0.00 in0.0 mm 0.00 in0.0 mm
10:05 PM 42.7°F5.9°C 34.7°F1.5°C 73% 14.0 mph NE22.5 kmh NE 17.0 mph27.4 kmh 30.42 in1030.1 mb 0.00 in0.0 mm 0.00 in0.0 mm 0.00 in0.0 mm
10:10 PM 42.6°F5.9°C 34.6°F1.4°C 73% 14.0 mph NE22.5 kmh NE 14.0 mph22.5 kmh 30.42 in1030.1 mb 0.00 in0.0 mm 0.00 in0.0 mm 0.00 in0.0 mm
10:15 PM 42.6°F5.9°C 34.9°F1.6°C 74% 13.0 mph NE20.9 kmh NE 16.0 mph25.7 kmh 30.42 in1030.1 mb 0.00 in0.0 mm 0.00 in0.0 mm 0.00 in0.0 mm
10:20 PM 42.6°F5.9°C 34.6°F1.4°C 73% 11.0 mph NE17.7 kmh NE 16.0 mph25.7 kmh 30.41 in1029.8 mb 0.00 in0.0 mm 0.00 in0.0 mm 0.00 in0.0 mm
10:25 PM 42.5°F5.8°C 34.1°F1.2°C 72% 12.0 mph NE19.3 kmh NE 13.0 mph20.9 kmh 30.41 in1029.8 mb 0.00 in0.0 mm 0.00 in0.0 mm 0.00 in0.0 mm
10:30 PM 42.4°F5.8°C 34.0°F1.1°C 72% 12.0 mph NE19.3 kmh NE 13.0 mph20.9 kmh 30.41 in1029.8 mb 0.00 in0.0 mm 0.00 in0.0 mm 0.00 in0.0 mm
10:35 PM 42.4°F5.8°C 34.7°F1.5°C 74% 10.0 mph NE16.1 kmh NE 13.0 mph20.9 kmh 30.41 in1029.8 mb 0.00 in0.0 mm 0.00 in0.0 mm 0.00 in0.0 mm
10:40 PM 42.4°F5.8°C 34.7°F1.5°C 74% 10.0 mph NE16.1 kmh NE 13.0 mph20.9 kmh 30.41 in1029.8 mb 0.00 in0.0 mm 0.00 in0.0 mm 0.00 in0.0 mm
10:45 PM 42.4°F5.8°C 34.7°F1.5°C 74% 11.0 mph NE17.7 kmh NE 13.0 mph20.9 kmh 30.41 in1029.8 mb 0.00 in0.0 mm 0.00 in0.0 mm 0.00 in0.0 mm
10:50 PM 42.4°F5.8°C 34.7°F1.5°C 74% 11.0 mph NE17.7 kmh NE 14.0 mph22.5 kmh 30.41 in1029.8 mb 0.00 in0.0 mm 0.00 in0.0 mm 0.00 in0.0 mm
10:55 PM 42.3°F5.7°C 34.6°F1.4°C 74% 12.0 mph NE19.3 kmh NE 12.0 mph19.3 kmh 30.41 in1029.8 mb 0.00 in0.0 mm 0.00 in0.0 mm 0.00 in0.0 mm
11:00 PM 42.2°F5.7°C 34.5°F1.4°C 74% 13.0 mph NE20.9 kmh NE 13.0 mph20.9 kmh 30.41 in1029.8 mb 0.00 in0.0 mm 0.00 in0.0 mm 0.00 in0.0 mm
11:05 PM 42.2°F5.7°C 34.2°F1.2°C 73% 11.0 mph NE17.7 kmh NE 14.0 mph22.5 kmh 30.41 in1029.8 mb 0.00 in0.0 mm 0.00 in0.0 mm 0.00 in0.0 mm
11:10 PM 42.2°F5.7°C 34.5°F1.4°C 74% 10.0 mph NE16.1 kmh NE 12.0 mph19.3 kmh 30.41 in1029.8 mb 0.00 in0.0 mm 0.00 in0.0 mm 0.00 in0.0 mm
11:15 PM 42.2°F5.7°C 34.2°F1.2°C 73% 9.0 mph NE14.5 kmh NE 13.0 mph20.9 kmh 30.41 in1029.8 mb 0.00 in0.0 mm 0.00 in0.0 mm 0.00 in0.0 mm
11:20 PM 42.1°F5.6°C 34.1°F1.2°C 73% 10.0 mph NE16.1 kmh NE 13.0 mph20.9 kmh 30.41 in1029.8 mb 0.00 in0.0 mm 0.00 in0.0 mm 0.00 in0.0 mm
11:25 PM 42.2°F5.7°C 34.9°F1.6°C 75% 6.0 mph ENE9.7 kmh ENE 8.0 mph12.9 kmh 30.41 in1029.8 mb 0.00 in0.0 mm 0.00 in0.0 mm 0.00 in0.0 mm
11:30 PM 42.0°F5.6°C 34.0°F1.1°C 73% 6.0 mph ENE9.7 kmh ENE 9.0 mph14.5 kmh 30.41 in1029.8 mb 0.00 in0.0 mm 0.00 in0.0 mm 0.00 in0.0 mm
11:35 PM 42.0°F5.6°C 34.3°F1.3°C 74% 5.0 mph ENE8.0 kmh ENE 9.0 mph14.5 kmh 30.41 in1029.8 mb 0.00 in0.0 mm 0.00 in0.0 mm 0.00 in0.0 mm
11:40 PM 41.7°F5.4°C 34.0°F1.1°C 74% 8.0 mph ENE12.9 kmh ENE 8.0 mph12.9 kmh 30.41 in1029.8 mb 0.00 in0.0 mm 0.00 in0.0 mm 0.00 in0.0 mm
11:45 PM 41.6°F5.3°C 33.6°F0.9°C 73% 5.0 mph ENE8.0 kmh ENE 8.0 mph12.9 kmh 30.41 in1029.8 mb 0.00 in0.0 mm 0.00 in0.0 mm 0.00 in0.0 mm
11:50 PM 41.5°F5.3°C 33.5°F0.8°C 73% 6.0 mph ENE9.7 kmh ENE 8.0 mph12.9 kmh 30.41 in1029.8 mb 0.00 in0.0 mm 0.00 in0.0 mm 0.00 in0.0 mm
11:55 PM 41.5°F5.3°C 33.8°F1.0°C 74% 5.0 mph ENE8.0 kmh ENE 5.0 mph8.0 kmh 30.41 in1029.8 mb 0.00 in0.0 mm 0.00 in0.0 mm 0.00 in0.0 mm